Terminal Aerodrome Forecast
Issued by NWS

Home | Current Version | Previous Version | Text Only | Print | Product List | Glossary On
Versions: 1 2 3 4 5 6 7 8 9 10 11 12 13
461
FTUS46 KSGX 191736
TAFCRQ
TAF
KCRQ 191736Z 1918/2018 22008KT P6SM BKN035
     FM192000 25012G20KT P6SM SCT035
     FM200300 22005KT P6SM SCT020
     FM200500 15005KT P6SM SKC=

USA.gov is the U.S. government's official web portal to all federal, state and local government web resources and services.